createdAt,value
2014-09-20T05:42:50.688Z,47
2014-09-20T05:43:08.875Z,48
2014-09-20T05:43:27.066Z,48
2014-09-20T05:43:45.253Z,49
2014-09-20T05:44:03.441Z,49
2014-09-20T05:44:21.644Z,49
2014-09-20T05:44:39.833Z,49
2014-09-20T05:44:58.021Z,48
2014-09-20T05:45:16.208Z,38
2014-09-20T05:45:34.397Z,47
2014-09-20T05:45:52.584Z,47
2014-09-20T05:46:10.772Z,46
2014-09-20T05:46:28.961Z,46
2014-09-20T05:46:47.149Z,45
2014-09-20T05:47:05.336Z,44
2014-09-20T05:47:23.539Z,44
2014-09-20T05:47:41.730Z,43
2014-09-20T05:47:59.917Z,42
2014-09-20T05:48:18.105Z,41
2014-09-20T05:48:36.293Z,40
2014-09-20T05:48:54.481Z,39
2014-09-20T05:49:12.668Z,39
2014-09-20T05:49:30.856Z,38
2014-09-20T05:49:49.046Z,39
2014-09-20T05:50:07.234Z,39
2014-09-20T05:50:25.421Z,39
2014-09-20T05:50:43.611Z,40
2014-09-20T05:51:01.798Z,40
2014-09-20T05:51:20.002Z,41
2014-09-20T05:51:38.189Z,42
2014-09-20T05:51:56.378Z,42
2014-09-20T05:52:14.565Z,43
2014-09-20T05:52:32.753Z,43
2014-09-20T05:52:50.942Z,44
2014-09-20T05:53:09.130Z,44
2014-09-20T05:53:27.317Z,45
2014-09-20T05:53:45.505Z,45
2014-09-20T05:54:03.695Z,46
2014-09-20T05:54:21.883Z,46
2014-09-20T05:54:40.070Z,47
2014-09-20T05:54:58.274Z,47
2014-09-20T05:55:16.462Z,47
2014-09-20T05:55:34.649Z,47
2014-09-20T05:55:52.837Z,46
2014-09-20T05:56:11.027Z,46
2014-09-20T05:56:29.215Z,45
2014-09-20T05:56:47.418Z,45
2014-09-20T05:57:05.607Z,44
2014-09-20T05:57:23.795Z,44
2014-09-20T05:57:41.982Z,43
2014-09-20T05:58:00.185Z,43
2014-09-20T05:58:18.375Z,43
2014-09-20T05:58:36.562Z,43
2014-09-20T05:58:54.750Z,43
2014-09-20T05:59:12.939Z,43
2014-09-20T05:59:31.143Z,44
2014-09-20T05:59:49.330Z,44
2014-09-20T06:00:07.518Z,45
2014-09-20T06:00:25.707Z,45
2014-09-20T06:00:43.895Z,46
2014-09-20T06:01:02.082Z,47
2014-09-20T06:01:20.287Z,47
2014-09-20T06:01:38.475Z,48
2014-09-20T06:01:56.662Z,49
2014-09-20T06:02:14.850Z,49
2014-09-20T06:02:33.039Z,50
2014-09-20T06:02:51.242Z,51
2014-09-20T06:03:09.430Z,51
2014-09-20T06:03:27.619Z,51
2014-09-20T06:03:45.807Z,52
2014-09-20T06:04:04.010Z,53
2014-09-20T06:04:22.197Z,53
2014-09-20T06:04:40.387Z,54
2014-09-20T06:04:58.574Z,55
2014-09-20T06:05:16.762Z,55
2014-09-20T06:05:34.951Z,55
2014-09-20T06:05:53.155Z,55
2014-09-20T06:06:11.342Z,55
2014-09-20T06:06:29.532Z,56
2014-09-20T06:06:47.719Z,58
2014-09-20T06:07:05.907Z,60
2014-09-20T06:07:24.112Z,61
2014-09-20T06:07:42.299Z,61
2014-09-20T06:08:00.487Z,61
2014-09-20T06:08:18.674Z,61
2014-09-20T06:08:36.879Z,60
2014-09-20T06:08:55.067Z,60
2014-09-20T06:09:13.254Z,60
2014-09-20T06:09:31.443Z,59
2014-09-20T06:09:49.630Z,59
2014-09-20T06:10:07.818Z,57
2014-09-20T06:10:26.023Z,55
2014-09-20T06:10:44.210Z,53
2014-09-20T06:11:02.398Z,52
2014-09-20T06:11:20.585Z,51
2014-09-20T06:11:38.791Z,49
2014-09-20T06:11:56.994Z,48
2014-09-20T06:12:15.166Z,46
2014-09-20T06:12:33.355Z,45
2014-09-20T06:12:51.543Z,44
2014-09-20T06:13:09.746Z,43
2014-09-20T06:13:27.966Z,44
2014-09-20T06:13:46.170Z,44
2014-09-20T06:14:04.357Z,44
2014-09-20T06:14:22.545Z,44
2014-09-20T06:14:40.734Z,43
2014-09-20T06:14:58.922Z,44
2014-09-20T06:15:17.125Z,44
2014-09-20T06:15:35.314Z,45
2014-09-20T06:15:53.502Z,45
2014-09-20T06:16:11.689Z,100
2014-09-20T06:16:29.894Z,106
2014-09-20T06:16:48.082Z,109
2014-09-20T06:17:06.285Z,112
2014-09-20T06:17:24.474Z,110
2014-09-20T06:17:42.662Z,114
2014-09-20T06:18:00.865Z,112
2014-09-20T06:18:19.053Z,111
2014-09-20T06:18:37.257Z,113
2014-09-20T06:18:55.444Z,112
2014-09-20T06:19:13.632Z,112
2014-09-20T06:19:31.838Z,116
2014-09-20T06:19:50.025Z,112
2014-09-20T06:20:08.213Z,114
2014-09-20T06:20:26.418Z,111
2014-09-20T06:20:44.605Z,112
2014-09-20T06:21:02.793Z,110
2014-09-20T06:21:20.996Z,116
2014-09-20T06:21:39.186Z,118
2014-09-20T06:21:57.373Z,118
2014-09-20T06:22:15.576Z,114
2014-09-20T06:22:33.766Z,117
2014-09-20T06:22:51.953Z,116
2014-09-20T06:23:10.156Z,115
2014-09-20T06:23:28.344Z,115
2014-09-20T06:23:46.533Z,115
2014-09-20T06:24:04.736Z,115
2014-09-20T06:24:22.924Z,115
2014-09-20T06:24:41.113Z,116
2014-09-20T06:24:59.317Z,115
2014-09-20T06:25:17.504Z,117
2014-09-20T06:25:35.692Z,115
2014-09-20T06:25:53.881Z,120
2014-09-20T06:26:12.084Z,117
2014-09-20T06:26:30.272Z,119
2014-09-20T06:26:48.477Z,121
2014-09-20T06:27:06.664Z,118
2014-09-20T06:27:24.867Z,118
2014-09-20T06:27:43.055Z,773
2014-09-20T06:28:01.260Z,60
2014-09-20T06:28:19.448Z,62
2014-09-20T06:28:37.635Z,64
2014-09-20T06:28:55.825Z,62
2014-09-20T06:29:14.028Z,64
2014-09-20T06:29:32.215Z,64
2014-09-20T06:29:50.403Z,64
2014-09-20T06:30:08.592Z,64
2014-09-20T06:30:26.780Z,66
2014-09-20T06:30:44.967Z,67
2014-09-20T06:31:03.172Z,67
2014-09-20T06:31:21.360Z,67
2014-09-20T06:31:39.547Z,68
2014-09-20T06:31:57.735Z,68
2014-09-20T06:32:15.924Z,68
2014-09-20T06:32:34.112Z,67
2014-09-20T06:32:52.299Z,66
2014-09-20T06:33:10.504Z,65
2014-09-20T06:33:28.692Z,64
2014-09-20T06:33:46.879Z,66
2014-09-20T06:34:05.067Z,67
2014-09-20T06:34:23.272Z,68
2014-09-20T06:34:41.460Z,70
2014-09-20T06:34:59.663Z,71
2014-09-20T06:35:17.852Z,71
2014-09-20T06:35:36.040Z,72
2014-09-20T06:35:54.227Z,72
2014-09-20T06:36:12.430Z,72
2014-09-20T06:36:30.620Z,72
2014-09-20T06:36:48.807Z,71
2014-09-20T06:37:07.010Z,71
2014-09-20T06:37:25.200Z,71
2014-09-20T06:37:43.387Z,70
2014-09-20T06:38:01.575Z,70
2014-09-20T06:38:19.778Z,71
2014-09-20T06:38:37.968Z,71
2014-09-20T06:38:56.155Z,72
2014-09-20T06:39:14.343Z,73
2014-09-20T06:39:32.548Z,74
2014-09-20T06:39:50.735Z,75
2014-09-20T06:40:08.923Z,77
2014-09-20T06:40:27.112Z,79
2014-09-20T06:40:45.315Z,80
2014-09-20T06:41:03.503Z,81
2014-09-20T06:41:21.706Z,83
2014-09-20T06:41:39.880Z,85
2014-09-20T06:41:58.083Z,87
2014-09-20T06:42:16.270Z,89
2014-09-20T06:42:34.460Z,90
2014-09-20T06:42:52.663Z,91
2014-09-20T06:43:10.851Z,92
2014-09-20T06:43:29.040Z,92
2014-09-20T06:43:47.228Z,93
2014-09-20T06:44:05.415Z,96
2014-09-20T06:44:23.618Z,772
2014-09-20T06:44:41.808Z,361
2014-09-20T06:45:00.011Z,412
2014-09-20T06:45:18.198Z,454
2014-09-20T06:45:36.388Z,442
2014-09-20T06:45:54.638Z,436
2014-09-20T06:46:12.825Z,472
2014-09-20T06:46:31.030Z,473
2014-09-20T06:46:49.218Z,464
2014-09-20T06:47:07.421Z,466
2014-09-20T06:47:25.610Z,481
2014-09-20T06:47:43.813Z,488
2014-09-20T06:48:02.000Z,494
2014-09-20T06:48:20.203Z,473
2014-09-20T06:48:38.393Z,472
2014-09-20T06:48:56.596Z,493
2014-09-20T06:49:14.783Z,464
2014-09-20T06:49:32.990Z,475
2014-09-20T06:49:51.177Z,467
2014-09-20T06:50:09.380Z,465
2014-09-20T06:50:27.568Z,502
2014-09-20T06:50:45.773Z,492
2014-09-20T06:51:03.960Z,465
2014-09-20T06:51:22.163Z,465
2014-09-20T06:51:40.353Z,498
2014-09-20T06:51:58.556Z,461
2014-09-20T06:52:16.744Z,480
2014-09-20T06:52:34.947Z,465
2014-09-20T06:52:53.136Z,497
2014-09-20T06:53:11.339Z,503
2014-09-20T06:53:29.527Z,461
2014-09-20T06:53:47.732Z,466
2014-09-20T06:54:05.919Z,501
2014-09-20T06:54:24.123Z,465
2014-09-20T06:54:42.310Z,502
2014-09-20T06:55:00.515Z,111
2014-09-20T06:55:18.703Z,111
2014-09-20T06:55:36.906Z,110
2014-09-20T06:55:55.095Z,111
2014-09-20T06:56:13.298Z,111
2014-09-20T06:56:31.486Z,111
2014-09-20T06:56:49.689Z,110
2014-09-20T06:57:07.879Z,110
2014-09-20T06:57:26.082Z,110
2014-09-20T06:57:44.269Z,109
2014-09-20T06:58:02.474Z,108
2014-09-20T06:58:20.662Z,108
2014-09-20T06:58:38.865Z,108
2014-09-20T06:58:57.052Z,109
2014-09-20T06:59:15.258Z,110
2014-09-20T06:59:33.445Z,111
2014-09-20T06:59:51.648Z,111
2014-09-20T07:00:09.838Z,111
2014-09-20T07:00:28.041Z,111
2014-09-20T07:00:46.228Z,111
2014-09-20T07:01:04.431Z,112
2014-09-20T07:01:22.621Z,113
2014-09-20T07:01:40.808Z,115
2014-09-20T07:01:59.012Z,116
2014-09-20T07:02:17.201Z,118
2014-09-20T07:02:35.404Z,119
2014-09-20T07:02:53.592Z,120
2014-09-20T07:03:11.779Z,120
2014-09-20T07:03:29.984Z,120
2014-09-20T07:03:48.172Z,119
2014-09-20T07:04:06.375Z,119
2014-09-20T07:04:24.564Z,120
2014-09-20T07:04:42.752Z,120
2014-09-20T07:05:00.955Z,119
2014-09-20T07:05:19.158Z,119
2014-09-20T07:05:37.348Z,118
2014-09-20T07:05:55.535Z,117
2014-09-20T07:06:13.738Z,116
2014-09-20T07:06:31.928Z,116
2014-09-20T07:06:50.131Z,117
2014-09-20T07:07:08.318Z,118
2014-09-20T07:07:26.524Z,118
2014-09-20T07:07:44.711Z,118
2014-09-20T07:08:02.914Z,118
2014-09-20T07:08:21.102Z,118
2014-09-20T07:08:39.291Z,118
2014-09-20T07:08:57.494Z,117
2014-09-20T07:09:15.697Z,117
2014-09-20T07:09:33.887Z,117
2014-09-20T07:09:52.074Z,117
2014-09-20T07:10:10.278Z,117
2014-09-20T07:10:28.467Z,116
2014-09-20T07:10:46.670Z,116
2014-09-20T09:45:26.621Z,238
2014-09-20T09:45:44.811Z,237
2014-09-20T09:46:03.014Z,236
2014-09-20T09:46:21.202Z,235
2014-09-20T09:46:39.407Z,233
2014-09-20T09:46:57.594Z,231
2014-09-20T09:47:15.797Z,228
2014-09-20T09:47:33.987Z,226
2014-09-20T09:47:52.190Z,225
2014-09-20T09:48:10.377Z,223
2014-09-20T09:48:28.581Z,221
2014-09-20T09:48:46.770Z,217
2014-09-20T09:49:04.973Z,216
2014-09-20T09:49:23.161Z,215
2014-09-20T09:49:41.350Z,213
2014-09-20T09:49:59.553Z,212
2014-09-20T09:50:17.756Z,211
2014-09-20T09:50:35.946Z,213
2014-09-20T09:50:54.133Z,213
2014-09-20T09:51:12.337Z,214
2014-09-20T09:51:30.540Z,214
2014-09-20T09:51:48.729Z,215
2014-09-20T09:52:06.917Z,214
2014-09-20T09:52:25.120Z,213
2014-09-20T09:52:43.309Z,213
2014-09-20T09:53:01.512Z,213
2014-09-20T09:53:19.716Z,212
2014-09-20T09:53:37.905Z,212
2014-09-20T09:53:56.093Z,212
2014-09-20T09:54:14.296Z,211
2014-09-20T09:54:32.483Z,210
2014-09-20T09:54:50.673Z,210
2014-09-20T09:55:08.876Z,210
2014-09-20T09:55:27.063Z,209
2014-09-20T09:55:45.252Z,208
2014-09-20T09:56:03.455Z,206
2014-09-20T09:56:21.642Z,204
2014-09-20T09:56:39.849Z,203
2014-09-20T09:56:58.036Z,203
2014-09-20T09:57:16.224Z,205
2014-09-20T09:57:34.411Z,206
2014-09-20T09:57:52.616Z,206
2014-09-20T09:58:10.804Z,205
2014-09-20T09:58:28.991Z,203
2014-09-20T09:58:47.181Z,201
2014-09-20T09:59:05.384Z,199
2014-09-20T09:59:23.571Z,199
2014-09-20T09:59:41.759Z,198
2014-09-20T09:59:59.964Z,197
2014-09-20T10:00:18.151Z,196
2014-09-20T10:00:36.339Z,195
2014-09-20T10:00:54.543Z,194
2014-09-20T10:01:12.731Z,193
2014-09-20T10:01:30.918Z,193
2014-09-20T10:01:49.106Z,192
2014-09-20T10:02:07.312Z,191
2014-09-20T10:02:25.515Z,190
2014-09-20T10:02:43.702Z,189
2014-09-20T10:03:01.892Z,189
2014-09-20T10:03:20.095Z,187
2014-09-20T10:03:38.282Z,185
2014-09-20T10:03:56.486Z,184
2014-09-20T10:04:14.675Z,182
2014-09-20T10:04:32.878Z,181
2014-09-20T10:04:51.066Z,180
2014-09-20T10:05:09.271Z,178
2014-09-20T10:05:27.458Z,177
2014-09-20T10:05:45.661Z,176
2014-09-20T10:06:03.849Z,175
2014-09-20T10:06:22.054Z,175
2014-09-20T10:06:40.242Z,174
2014-09-20T10:06:58.445Z,174
2014-09-20T10:07:16.634Z,174
2014-09-20T10:07:34.837Z,173
2014-09-20T10:07:53.025Z,173
2014-09-20T10:08:11.230Z,171
2014-09-20T10:08:29.417Z,171
2014-09-20T22:05:06.110Z,432
2014-09-20T22:05:24.300Z,462
2014-09-20T22:05:42.503Z,451
